Capitol Logistics 227


PHNL
Daniel K Inouye International Airport
Honolulu, Hawaii, US
KLAX
Los Angeles International Airport
Los Angeles, California, US

Activity Log

Date Flight Route Aircraft Duration
06/30/2019 CPX227 MKK4 CLUTS R465 CIVIT R585 AUDIA SNAXX RYDRR2 B763 5h 24m
01/19/2019 CPX227 MKK4 CLUTS R465 CIVIT R585 AUDIA SNAXX RYDRR2 B763 4h 50m
01/08/2019 CPX117 MKK4 EBBER R577 ELKEY RYDRR2 MD11 4h 41m
12/04/2018 CPX127 EBBER R577 ELKEY B763 5h 17m

Route Details

Aircraft Information
Primary: Boeing 767-300BDSF
Backup: Not Available
Route Data
Distance: 2267nm
Sched. Duration: 5h 40m
Avg. Duration: 4h 83m (-57m)
Times Flown: 4
Recm'd Route: MKK4 CLUTS R465 CIVIT R585 AUDIA SNAXX RYDRR2
Planned Altitude: 35,000ft
Origin Wx: PHNL 281153Z 06015G19KT 10SM FEW026 SCT048 BKN070 22/14 A3010 RMK AO2 RAE05 SLP191 P0000 60000 70001 T02220139 10239 20217 58019 VISNO RWY04R $
Dest. Wx: KLAX 281153Z 05003KT 10SM FEW150 BKN180 18/M02 A3009 RMK AO2 SLP187 T01781017 10233 20178 56008 $
Notes:

Financial History
Total Freight: 494,522lbs
Average Load: 123,631lbs/flt
Fuel Used: 253,639lbs
Avg. Fuel Used: 63,410lbs/flt
Fuel Expense: $184,895
Avg. Fuel Expense: $46,224
Avg. Fuel Cost: $0.73/lbs
Total Gross Income: $618,153
Pilot Pay: $756
Total Expenses: $66,968
Total Revenue: $362,200
Average Revenue: $154,538.13